sensor_id;sensor_type;location;lat;lon;timestamp;pressure;altitude;pressure_sealevel;temperature;humidity
48636;BME280;34429;52.332;5.614;2022-09-12T00:01:18;101727.50;;;14.64;100.00
48636;BME280;34429;52.332;5.614;2022-09-12T00:03:47;101721.94;;;14.66;100.00
48636;BME280;34429;52.332;5.614;2022-09-12T00:06:18;101726.66;;;14.64;100.00
48636;BME280;34429;52.332;5.614;2022-09-12T00:08:47;101724.34;;;14.59;100.00
48636;BME280;34429;52.332;5.614;2022-09-12T00:11:15;101721.63;;;14.59;100.00
48636;BME280;34429;52.332;5.614;2022-09-12T00:13:46;101718.50;;;14.64;100.00
48636;BME280;34429;52.332;5.614;2022-09-12T00:16:16;101718.91;;;14.59;100.00
48636;BME280;34429;52.332;5.614;2022-09-12T00:18:45;101714.31;;;14.50;100.00
48636;BME280;34429;52.332;5.614;2022-09-12T00:21:14;101710.91;;;14.48;100.00
48636;BME280;34429;52.332;5.614;2022-09-12T00:23:43;101718.88;;;14.40;100.00
48636;BME280;34429;52.332;5.614;2022-09-12T00:26:12;101716.03;;;14.31;100.00
48636;BME280;34429;52.332;5.614;2022-09-12T00:28:41;101710.88;;;14.28;100.00
48636;BME280;34429;52.332;5.614;2022-09-12T00:31:15;101707.75;;;14.33;100.00
48636;BME280;34429;52.332;5.614;2022-09-12T00:33:44;101707.63;;;14.34;100.00
48636;BME280;34429;52.332;5.614;2022-09-12T00:36:14;101696.59;;;14.26;100.00
48636;BME280;34429;52.332;5.614;2022-09-12T00:38:44;101702.47;;;14.31;100.00
48636;BME280;34429;52.332;5.614;2022-09-12T00:41:16;101697.34;;;14.28;100.00
48636;BME280;34429;52.332;5.614;2022-09-12T00:43:46;101687.94;;;14.23;100.00
48636;BME280;34429;52.332;5.614;2022-09-12T00:46:25;101689.34;;;14.17;100.00
48636;BME280;34429;52.332;5.614;2022-09-12T00:48:58;101688.34;;;14.18;100.00
48636;BME280;34429;52.332;5.614;2022-09-12T00:51:28;101685.63;;;14.18;100.00
48636;BME280;34429;52.332;5.614;2022-09-12T00:54:03;101682.47;;;14.13;100.00
48636;BME280;34429;52.332;5.614;2022-09-12T00:56:33;101676.38;;;14.11;100.00
48636;BME280;34429;52.332;5.614;2022-09-12T00:59:06;101674.91;;;14.07;100.00
48636;BME280;34429;52.332;5.614;2022-09-12T01:01:39;101676.94;;;14.05;100.00
48636;BME280;34429;52.332;5.614;2022-09-12T01:04:09;101676.31;;;14.01;100.00
48636;BME280;34429;52.332;5.614;2022-09-12T01:06:40;101670.91;;;14.01;100.00
48636;BME280;34429;52.332;5.614;2022-09-12T01:09:11;101679.72;;;13.93;100.00
48636;BME280;34429;52.332;5.614;2022-09-12T01:11:42;101677.31;;;14.00;100.00
48636;BME280;34429;52.332;5.614;2022-09-12T01:14:13;101672.03;;;13.98;100.00
48636;BME280;34429;52.332;5.614;2022-09-12T01:16:45;101673.91;;;13.98;100.00
48636;BME280;34429;52.332;5.614;2022-09-12T01:19:28;101670.78;;;13.93;100.00
48636;BME280;34429;52.332;5.614;2022-09-12T01:22:13;101663.78;;;13.90;100.00
48636;BME280;34429;52.332;5.614;2022-09-12T01:24:51;101664.63;;;13.91;100.00
48636;BME280;34429;52.332;5.614;2022-09-12T01:27:55;101672.31;;;13.86;100.00
48636;BME280;34429;52.332;5.614;2022-09-12T01:30:43;101672.59;;;13.82;100.00
48636;BME280;34429;52.332;5.614;2022-09-12T01:36:30;101666.03;;;13.85;100.00
48636;BME280;34429;52.332;5.614;2022-09-12T01:39:02;101671.84;;;13.80;100.00
48636;BME280;34429;52.332;5.614;2022-09-12T01:41:41;101678.56;;;13.86;100.00
48636;BME280;34429;52.332;5.614;2022-09-12T01:44:15;101669.88;;;13.82;100.00
48636;BME280;34429;52.332;5.614;2022-09-12T01:46:54;101666.31;;;13.82;100.00
48636;BME280;34429;52.332;5.614;2022-09-12T01:49:30;101667.56;;;13.78;100.00
48636;BME280;34429;52.332;5.614;2022-09-12T01:52:04;101666.72;;;13.77;100.00
48636;BME280;34429;52.332;5.614;2022-09-12T01:54:39;101668.56;;;13.77;100.00
48636;BME280;34429;52.332;5.614;2022-09-12T01:57:11;101654.03;;;13.78;100.00
48636;BME280;34429;52.332;5.614;2022-09-12T01:59:44;101656.75;;;13.78;100.00
48636;BME280;34429;52.332;5.614;2022-09-12T02:02:20;101652.34;;;13.77;100.00
48636;BME280;34429;52.332;5.614;2022-09-12T02:04:56;101642.38;;;13.77;100.00
48636;BME280;34429;52.332;5.614;2022-09-12T02:07:30;101639.38;;;13.80;100.00
48636;BME280;34429;52.332;5.614;2022-09-12T02:10:07;101632.66;;;13.75;100.00
48636;BME280;34429;52.332;5.614;2022-09-12T02:12:41;101632.66;;;13.75;100.00
48636;BME280;34429;52.332;5.614;2022-09-12T02:15:12;101623.16;;;13.71;100.00
48636;BME280;34429;52.332;5.614;2022-09-12T02:17:49;101627.53;;;13.72;100.00
48636;BME280;34429;52.332;5.614;2022-09-12T02:20:19;101629.41;;;13.71;100.00
48636;BME280;34429;52.332;5.614;2022-09-12T02:22:51;101630.97;;;13.74;100.00
48636;BME280;34429;52.332;5.614;2022-09-12T02:25:21;101632.94;;;13.72;100.00
48636;BME280;34429;52.332;5.614;2022-09-12T02:27:55;101624.84;;;13.72;100.00
48636;BME280;34429;52.332;5.614;2022-09-12T02:30:30;101627.53;;;13.72;100.00
48636;BME280;34429;52.332;5.614;2022-09-12T02:33:08;101624.84;;;13.72;100.00
48636;BME280;34429;52.332;5.614;2022-09-12T02:35:46;101620.13;;;13.64;100.00
48636;BME280;34429;52.332;5.614;2022-09-12T02:38:21;101621.38;;;13.60;100.00
48636;BME280;34429;52.332;5.614;2022-09-12T02:40:51;101613.25;;;13.60;100.00
48636;BME280;34429;52.332;5.614;2022-09-12T02:43:20;101615.69;;;13.63;100.00
48636;BME280;34429;52.332;5.614;2022-09-12T02:45:48;101611.31;;;13.62;100.00
48636;BME280;34429;52.332;5.614;2022-09-12T02:48:22;101610.00;;;13.56;100.00
48636;BME280;34429;52.332;5.614;2022-09-12T02:50:52;101617.38;;;13.54;100.00
48636;BME280;34429;52.332;5.614;2022-09-12T02:53:21;101608.72;;;13.60;100.00
48636;BME280;34429;52.332;5.614;2022-09-12T02:55:50;101614.66;;;13.54;100.00
48636;BME280;34429;52.332;5.614;2022-09-12T02:58:22;101607.56;;;13.53;100.00
48636;BME280;34429;52.332;5.614;2022-09-12T03:00:59;101601.16;;;13.54;100.00
48636;BME280;34429;52.332;5.614;2022-09-12T03:03:46;101603.69;;;13.46;100.00
48636;BME280;34429;52.332;5.614;2022-09-12T03:06:24;101604.41;;;13.48;100.00
48636;BME280;34429;52.332;5.614;2022-09-12T03:09:05;101608.09;;;13.47;100.00
48636;BME280;34429;52.332;5.614;2022-09-12T03:11:49;101592.88;;;13.46;100.00
48636;BME280;34429;52.332;5.614;2022-09-12T03:14:34;101600.25;;;13.44;100.00
48636;BME280;34429;52.332;5.614;2022-09-12T03:17:12;101599.53;;;13.42;100.00
48636;BME280;34429;52.332;5.614;2022-09-12T03:19:51;101594.41;;;13.39;100.00
48636;BME280;34429;52.332;5.614;2022-09-12T03:22:26;101591.22;;;13.33;100.00
48636;BME280;34429;52.332;5.614;2022-09-12T03:25:02;101592.13;;;13.34;100.00
48636;BME280;34429;52.332;5.614;2022-09-12T03:27:35;101582.41;;;13.31;100.00
48636;BME280;34429;52.332;5.614;2022-09-12T03:30:06;101590.50;;;13.31;100.00
48636;BME280;34429;52.332;5.614;2022-09-12T03:32:39;101582.81;;;13.27;100.00
48636;BME280;34429;52.332;5.614;2022-09-12T03:35:11;101584.63;;;13.26;100.00
48636;BME280;34429;52.332;5.614;2022-09-12T03:37:40;101585.78;;;13.24;100.00
48636;BME280;34429;52.332;5.614;2022-09-12T03:40:09;101575.13;;;13.32;100.00
48636;BME280;34429;52.332;5.614;2022-09-12T03:42:40;101578.19;;;13.39;100.00
48636;BME280;34429;52.332;5.614;2022-09-12T03:45:09;101579.91;;;13.40;100.00
48636;BME280;34429;52.332;5.614;2022-09-12T03:47:39;101579.91;;;13.40;100.00
48636;BME280;34429;52.332;5.614;2022-09-12T03:50:10;101575.63;;;13.37;100.00
48636;BME280;34429;52.332;5.614;2022-09-12T03:52:38;101583.59;;;13.39;100.00
48636;BME280;34429;52.332;5.614;2022-09-12T03:55:07;101575.63;;;13.47;100.00
48636;BME280;34429;52.332;5.614;2022-09-12T03:57:35;101578.63;;;13.44;100.00
48636;BME280;34429;52.332;5.614;2022-09-12T04:00:05;101579.16;;;13.38;100.00
48636;BME280;34429;52.332;5.614;2022-09-12T04:02:34;101567.09;;;13.42;100.00
48636;BME280;34429;52.332;5.614;2022-09-12T04:05:04;101568.50;;;13.36;100.00
48636;BME280;34429;52.332;5.614;2022-09-12T04:07:35;101562.78;;;13.29;100.00
48636;BME280;34429;52.332;5.614;2022-09-12T04:10:04;101556.34;;;13.30;100.00
48636;BME280;34429;52.332;5.614;2022-09-12T04:12:32;101555.38;;;13.31;100.00
48636;BME280;34429;52.332;5.614;2022-09-12T04:15:01;101563.34;;;13.33;100.00
48636;BME280;34429;52.332;5.614;2022-09-12T04:17:29;101563.75;;;13.28;100.00
48636;BME280;34429;52.332;5.614;2022-09-12T04:19:57;101564.72;;;13.27;100.00
48636;BME280;34429;52.332;5.614;2022-09-12T04:22:26;101555.91;;;13.25;100.00
48636;BME280;34429;52.332;5.614;2022-09-12T04:24:58;101557.59;;;13.26;100.00
48636;BME280;34429;52.332;5.614;2022-09-12T04:27:27;101562.31;;;13.24;100.00
48636;BME280;34429;52.332;5.614;2022-09-12T04:29:55;101558.47;;;13.27;100.00
48636;BME280;34429;52.332;5.614;2022-09-12T04:32:24;101559.31;;;13.27;100.00
48636;BME280;34429;52.332;5.614;2022-09-12T04:34:52;101555.38;;;13.31;100.00
48636;BME280;34429;52.332;5.614;2022-09-12T04:37:21;101561.75;;;13.30;100.00
48636;BME280;34429;52.332;5.614;2022-09-12T04:39:49;101559.47;;;13.26;100.00
48636;BME280;34429;52.332;5.614;2022-09-12T04:42:24;101558.34;;;13.28;100.00
48636;BME280;34429;52.332;5.614;2022-09-12T04:44:52;101558.78;;;13.33;100.00
48636;BME280;34429;52.332;5.614;2022-09-12T04:47:21;101560.97;;;13.40;100.00
48636;BME280;34429;52.332;5.614;2022-09-12T04:49:49;101557.53;;;13.38;100.00
48636;BME280;34429;52.332;5.614;2022-09-12T04:52:18;101560.09;;;13.39;100.00
48636;BME280;34429;52.332;5.614;2022-09-12T04:54:46;101564.13;;;13.45;100.00
48636;BME280;34429;52.332;5.614;2022-09-12T04:57:15;101563.41;;;13.43;100.00
48636;BME280;34429;52.332;5.614;2022-09-12T04:59:46;101561.44;;;13.55;100.00
48636;BME280;34429;52.332;5.614;2022-09-12T05:02:14;101561.03;;;13.59;100.00
48636;BME280;34429;52.332;5.614;2022-09-12T05:04:43;101564.03;;;13.66;100.00
48636;BME280;34429;52.332;5.614;2022-09-12T05:07:11;101556.63;;;13.68;100.00
48636;BME280;34429;52.332;5.614;2022-09-12T05:09:39;101563.75;;;13.69;100.00
48636;BME280;34429;52.332;5.614;2022-09-12T05:12:08;101560.91;;;13.80;100.00
48636;BME280;34429;52.332;5.614;2022-09-12T05:14:36;101560.50;;;13.85;100.00
48636;BME280;34429;52.332;5.614;2022-09-12T05:17:07;101549.97;;;13.92;100.00
48636;BME280;34429;52.332;5.614;2022-09-12T05:19:35;101555.09;;;13.95;100.00
48636;BME280;34429;52.332;5.614;2022-09-12T05:22:04;101545.84;;;13.97;100.00
48636;BME280;34429;52.332;5.614;2022-09-12T05:24:32;101550.69;;;14.04;100.00
48636;BME280;34429;52.332;5.614;2022-09-12T05:27:04;101556.53;;;14.09;100.00
48636;BME280;34429;52.332;5.614;2022-09-12T05:29:32;101555.53;;;14.10;100.00
48636;BME280;34429;52.332;5.614;2022-09-12T05:32:01;101555.97;;;14.25;100.00
48636;BME280;34429;52.332;5.614;2022-09-12T05:34:32;101554.28;;;14.24;100.00
48636;BME280;34429;52.332;5.614;2022-09-12T05:37:00;101545.56;;;14.30;100.00
48636;BME280;34429;52.332;5.614;2022-09-12T05:39:28;101548.69;;;14.35;100.00
48636;BME280;34429;52.332;5.614;2022-09-12T05:41:56;101553.81;;;14.38;100.00
48636;BME280;34429;52.332;5.614;2022-09-12T05:44:25;101561.22;;;14.46;100.00
48636;BME280;34429;52.332;5.614;2022-09-12T05:46:53;101544.94;;;14.55;100.00
48636;BME280;34429;52.332;5.614;2022-09-12T05:49:21;101545.38;;;14.70;100.00
48636;BME280;34429;52.332;5.614;2022-09-12T05:51:52;101552.66;;;14.70;100.00
48636;BME280;34429;52.332;5.614;2022-09-12T05:54:21;101545.81;;;14.76;100.00
48636;BME280;34429;52.332;5.614;2022-09-12T05:56:49;101538.06;;;14.81;100.00
48636;BME280;34429;52.332;5.614;2022-09-12T05:59:19;101550.34;;;14.85;100.00
48636;BME280;34429;52.332;5.614;2022-09-12T06:01:48;101544.06;;;14.84;100.00
48636;BME280;34429;52.332;5.614;2022-09-12T06:04:16;101538.88;;;14.91;100.00
48636;BME280;34429;52.332;5.614;2022-09-12T06:06:45;101541.75;;;14.89;100.00
48636;BME280;34429;52.332;5.614;2022-09-12T06:09:16;101542.84;;;15.06;100.00
48636;BME280;34429;52.332;5.614;2022-09-12T06:11:45;101542.25;;;15.13;100.00
48636;BME280;34429;52.332;5.614;2022-09-12T06:14:17;101547.66;;;15.13;100.00
48636;BME280;34429;52.332;5.614;2022-09-12T06:16:46;101545.78;;;15.13;100.00
48636;BME280;34429;52.332;5.614;2022-09-12T06:19:16;101542.75;;;15.26;100.00
48636;BME280;34429;52.332;5.614;2022-09-12T06:21:45;101544.47;;;15.27;100.00
48636;BME280;34429;52.332;5.614;2022-09-12T06:24:17;101542.16;;;15.32;100.00
48636;BME280;34429;52.332;5.614;2022-09-12T06:26:46;101551.81;;;15.45;100.00
48636;BME280;34429;52.332;5.614;2022-09-12T06:29:16;101552.50;;;15.47;100.00
48636;BME280;34429;52.332;5.614;2022-09-12T06:31:45;101555.91;;;15.49;100.00
48636;BME280;34429;52.332;5.614;2022-09-12T06:34:14;101551.03;;;15.52;100.00
48636;BME280;34429;52.332;5.614;2022-09-12T06:36:45;101542.13;;;15.60;100.00
48636;BME280;34429;52.332;5.614;2022-09-12T06:39:18;101534.78;;;15.70;100.00
48636;BME280;34429;52.332;5.614;2022-09-12T06:41:48;101541.78;;;15.73;100.00
48636;BME280;34429;52.332;5.614;2022-09-12T06:44:18;101541.63;;;15.74;100.00
48636;BME280;34429;52.332;5.614;2022-09-12T06:46:47;101543.59;;;15.82;100.00
48636;BME280;34429;52.332;5.614;2022-09-12T06:49:15;101532.97;;;15.89;100.00
48636;BME280;34429;52.332;5.614;2022-09-12T06:51:44;101534.84;;;16.06;100.00
48636;BME280;34429;52.332;5.614;2022-09-12T06:54:16;101523.34;;;16.13;100.00
48636;BME280;34429;52.332;5.614;2022-09-12T06:56:44;101530.31;;;15.97;100.00
48636;BME280;34429;52.332;5.614;2022-09-12T06:59:12;101521.03;;;16.00;100.00
48636;BME280;34429;52.332;5.614;2022-09-12T07:01:41;101523.34;;;16.13;100.00
48636;BME280;34429;52.332;5.614;2022-09-12T07:04:10;101530.09;;;16.08;100.00
48636;BME280;34429;52.332;5.614;2022-09-12T07:06:39;101535.34;;;16.28;100.00
48636;BME280;34429;52.332;5.614;2022-09-12T07:09:10;101534.16;;;16.49;100.00
48636;BME280;34429;52.332;5.614;2022-09-12T07:11:43;101533.50;;;16.55;100.00
48636;BME280;34429;52.332;5.614;2022-09-12T07:14:13;101538.94;;;16.55;100.00
48636;BME280;34429;52.332;5.614;2022-09-12T07:16:41;101535.94;;;16.58;100.00
48636;BME280;34429;52.332;5.614;2022-09-12T07:19:10;101525.75;;;16.60;100.00
48636;BME280;34429;52.332;5.614;2022-09-12T07:21:38;101533.63;;;16.45;100.00
48636;BME280;34429;52.332;5.614;2022-09-12T07:24:08;101533.16;;;16.50;100.00
48636;BME280;34429;52.332;5.614;2022-09-12T07:26:38;101531.84;;;16.54;100.00
48636;BME280;34429;52.332;5.614;2022-09-12T07:29:13;101534.44;;;16.63;100.00
48636;BME280;34429;52.332;5.614;2022-09-12T07:31:43;101526.91;;;16.84;100.00
48636;BME280;34429;52.332;5.614;2022-09-12T07:34:12;101535.91;;;17.02;100.00
48636;BME280;34429;52.332;5.614;2022-09-12T07:36:41;101524.53;;;17.07;100.00
48636;BME280;34429;52.332;5.614;2022-09-12T07:39:10;101518.47;;;17.21;100.00
48636;BME280;34429;52.332;5.614;2022-09-12T07:41:38;101521.44;;;17.36;100.00
48636;BME280;34429;52.332;5.614;2022-09-12T07:44:07;101517.69;;;17.45;100.00
48636;BME280;34429;52.332;5.614;2022-09-12T07:46:38;101521.84;;;17.66;100.00
48636;BME280;34429;52.332;5.614;2022-09-12T07:49:06;101514.41;;;17.84;100.00
48636;BME280;34429;52.332;5.614;2022-09-12T07:51:34;101515.44;;;17.92;100.00
48636;BME280;34429;52.332;5.614;2022-09-12T07:54:06;101511.50;;;17.86;100.00
48636;BME280;34429;52.332;5.614;2022-09-12T07:56:35;101513.06;;;17.97;100.00
48636;BME280;34429;52.332;5.614;2022-09-12T07:59:03;101511.16;;;17.89;100.00
48636;BME280;34429;52.332;5.614;2022-09-12T08:01:31;101505.59;;;18.15;100.00
48636;BME280;34429;52.332;5.614;2022-09-12T08:04:03;101505.09;;;18.20;100.00
48636;BME280;34429;52.332;5.614;2022-09-12T08:06:32;101512.22;;;18.29;100.00
48636;BME280;34429;52.332;5.614;2022-09-12T08:09:01;101520.91;;;18.41;100.00
48636;BME280;34429;52.332;5.614;2022-09-12T08:11:29;101526.38;;;18.49;100.00
48636;BME280;34429;52.332;5.614;2022-09-12T08:13:58;101524.31;;;18.51;100.00
48636;BME280;34429;52.332;5.614;2022-09-12T08:16:28;101529.09;;;18.49;100.00
48636;BME280;34429;52.332;5.614;2022-09-12T08:19:02;101517.72;;;19.10;100.00
48636;BME280;34429;52.332;5.614;2022-09-12T08:21:32;101511.97;;;18.88;100.00
48636;BME280;34429;52.332;5.614;2022-09-12T08:24:02;101511.91;;;19.05;100.00
48636;BME280;34429;52.332;5.614;2022-09-12T08:26:32;101509.47;;;19.26;100.00
48636;BME280;34429;52.332;5.614;2022-09-12T08:29:01;101508.81;;;19.16;100.00
48636;BME280;34429;52.332;5.614;2022-09-12T08:31:30;101514.09;;;19.18;100.00
48636;BME280;34429;52.332;5.614;2022-09-12T08:34:04;101506.97;;;19.48;100.00
48636;BME280;34429;52.332;5.614;2022-09-12T08:36:33;101506.88;;;19.65;100.00
48636;BME280;34429;52.332;5.614;2022-09-12T08:39:04;101505.78;;;19.74;100.00
48636;BME280;34429;52.332;5.614;2022-09-12T08:41:37;101495.88;;;20.04;100.00
48636;BME280;34429;52.332;5.614;2022-09-12T08:44:27;101501.81;;;20.46;100.00
48636;BME280;34429;52.332;5.614;2022-09-12T08:47:11;101498.31;;;20.52;100.00
48636;BME280;34429;52.332;5.614;2022-09-12T08:49:54;101489.13;;;20.68;100.00
48636;BME280;34429;52.332;5.614;2022-09-12T08:52:28;101495.38;;;20.77;100.00
48636;BME280;34429;52.332;5.614;2022-09-12T08:54:57;101501.78;;;20.84;100.00
48636;BME280;34429;52.332;5.614;2022-09-12T08:57:25;101495.38;;;20.77;100.00
48636;BME280;34429;52.332;5.614;2022-09-12T08:59:54;101499.63;;;20.79;100.00
48636;BME280;34429;52.332;5.614;2022-09-12T09:02:49;101494.44;;;20.99;100.00
48636;BME280;34429;52.332;5.614;2022-09-12T09:05:35;101494.59;;;21.13;100.00
48636;BME280;34429;52.332;5.614;2022-09-12T09:08:16;101487.50;;;21.18;100.00
48636;BME280;34429;52.332;5.614;2022-09-12T09:10:52;101492.06;;;20.81;100.00
48636;BME280;34429;52.332;5.614;2022-09-12T09:13:32;101480.00;;;20.91;100.00
48636;BME280;34429;52.332;5.614;2022-09-12T09:16:21;101484.28;;;21.30;100.00
48636;BME280;34429;52.332;5.614;2022-09-12T09:18:53;101476.41;;;21.42;100.00
48636;BME280;34429;52.332;5.614;2022-09-12T09:21:29;101470.47;;;21.53;100.00
48636;BME280;34429;52.332;5.614;2022-09-12T09:24:03;101475.78;;;21.76;100.00
48636;BME280;34429;52.332;5.614;2022-09-12T09:26:40;101478.53;;;21.76;100.00
48636;BME280;34429;52.332;5.614;2022-09-12T09:29:16;101475.56;;;21.99;100.00
48636;BME280;34429;52.332;5.614;2022-09-12T09:31:47;101466.81;;;21.89;100.00
48636;BME280;34429;52.332;5.614;2022-09-12T09:34:18;101464.34;;;21.51;100.00
48636;BME280;34429;52.332;5.614;2022-09-12T09:36:51;101464.22;;;21.59;100.00
48636;BME280;34429;52.332;5.614;2022-09-12T09:39:35;101460.81;;;21.79;100.00
48636;BME280;34429;52.332;5.614;2022-09-12T09:42:17;101464.50;;;21.64;100.00
48636;BME280;34429;52.332;5.614;2022-09-12T09:44:48;101455.84;;;21.89;100.00
48636;BME280;34429;52.332;5.614;2022-09-12T09:47:19;101460.38;;;22.25;100.00
48636;BME280;34429;52.332;5.614;2022-09-12T09:49:47;101448.81;;;22.30;100.00
48636;BME280;34429;52.332;5.614;2022-09-12T09:52:23;101452.19;;;22.53;100.00
48636;BME280;34429;52.332;5.614;2022-09-12T09:54:56;101450.53;;;22.59;100.00
48636;BME280;34429;52.332;5.614;2022-09-12T09:57:38;101447.78;;;22.59;100.00
48636;BME280;34429;52.332;5.614;2022-09-12T10:00:20;101444.06;;;22.38;100.00
48636;BME280;34429;52.332;5.614;2022-09-12T10:03:03;101447.09;;;22.50;100.00
48636;BME280;34429;52.332;5.614;2022-09-12T10:05:33;101444.22;;;22.65;100.00
48636;BME280;34429;52.332;5.614;2022-09-12T10:08:06;101442.69;;;22.91;100.00
48636;BME280;34429;52.332;5.614;2022-09-12T10:10:35;101440.16;;;22.96;100.00
48636;BME280;34429;52.332;5.614;2022-09-12T10:13:08;101440.63;;;23.00;100.00
48636;BME280;34429;52.332;5.614;2022-09-12T10:15:55;101431.84;;;23.18;100.00
48636;BME280;34429;52.332;5.614;2022-09-12T10:18:39;101436.63;;;23.09;100.00
48636;BME280;34429;52.332;5.614;2022-09-12T10:21:17;101433.72;;;23.17;100.00
48636;BME280;34429;52.332;5.614;2022-09-12T10:23:52;101427.22;;;23.25;100.00
48636;BME280;34429;52.332;5.614;2022-09-12T10:26:25;101426.38;;;23.31;100.00
48636;BME280;34429;52.332;5.614;2022-09-12T10:28:55;101419.22;;;23.43;100.00
48636;BME280;34429;52.332;5.614;2022-09-12T10:31:25;101416.69;;;23.35;100.00
48636;BME280;34429;52.332;5.614;2022-09-12T10:33:56;101411.25;;;23.07;100.00
48636;BME280;34429;52.332;5.614;2022-09-12T10:36:34;101402.13;;;23.48;100.00
48636;BME280;34429;52.332;5.614;2022-09-12T10:39:11;101404.88;;;23.55;100.00
48636;BME280;34429;52.332;5.614;2022-09-12T10:41:43;101408.63;;;23.27;100.00
48636;BME280;34429;52.332;5.614;2022-09-12T10:44:14;101404.06;;;23.68;100.00
48636;BME280;34429;52.332;5.614;2022-09-12T10:46:44;101401.72;;;23.58;100.00
48636;BME280;34429;52.332;5.614;2022-09-12T10:49:19;101402.56;;;23.65;100.00
48636;BME280;34429;52.332;5.614;2022-09-12T10:51:49;101402.59;;;23.72;100.00
48636;BME280;34429;52.332;5.614;2022-09-12T10:54:22;101404.91;;;23.61;100.00
48636;BME280;34429;52.332;5.614;2022-09-12T10:57:03;101393.47;;;23.71;100.00
48636;BME280;34429;52.332;5.614;2022-09-12T10:59:50;101393.28;;;23.79;100.00
48636;BME280;34429;52.332;5.614;2022-09-12T11:02:27;101380.81;;;23.84;100.00
48636;BME280;34429;52.332;5.614;2022-09-12T11:05:02;101384.81;;;23.61;100.00
48636;BME280;34429;52.332;5.614;2022-09-12T11:07:42;101387.38;;;23.69;100.00
48636;BME280;34429;52.332;5.614;2022-09-12T11:10:28;101392.69;;;24.04;100.00
48636;BME280;34429;52.332;5.614;2022-09-12T11:13:05;101382.66;;;24.43;100.00
48636;BME280;34429;52.332;5.614;2022-09-12T11:15:47;101381.59;;;24.44;100.00
48636;BME280;34429;52.332;5.614;2022-09-12T11:18:29;101381.88;;;23.96;100.00
48636;BME280;34429;52.332;5.614;2022-09-12T11:21:09;101373.44;;;24.04;100.00
48636;BME280;34429;52.332;5.614;2022-09-12T11:23:46;101381.66;;;24.11;100.00
48636;BME280;34429;52.332;5.614;2022-09-12T11:26:33;101385.91;;;24.00;100.00
48636;BME280;34429;52.332;5.614;2022-09-12T11:29:11;101382.50;;;24.25;100.00
48636;BME280;34429;52.332;5.614;2022-09-12T11:32:04;101381.78;;;24.63;100.00
48636;BME280;34429;52.332;5.614;2022-09-12T11:34:43;101379.63;;;24.72;100.00
48636;BME280;34429;52.332;5.614;2022-09-12T11:37:28;101374.41;;;24.43;100.00
48636;BME280;34429;52.332;5.614;2022-09-12T11:40:16;101376.13;;;24.24;100.00
48636;BME280;34429;52.332;5.614;2022-09-12T11:42:53;101373.97;;;24.46;100.00
48636;BME280;34429;52.332;5.614;2022-09-12T11:45:27;101377.00;;;24.18;100.00
48636;BME280;34429;52.332;5.614;2022-09-12T11:48:00;101374.88;;;24.07;100.00
48636;BME280;34429;52.332;5.614;2022-09-12T11:50:32;101378.28;;;23.89;100.00
48636;BME280;34429;52.332;5.614;2022-09-12T11:53:04;101371.06;;;23.74;100.00
48636;BME280;34429;52.332;5.614;2022-09-12T11:55:48;101361.78;;;24.09;100.00
48636;BME280;34429;52.332;5.614;2022-09-12T11:58:23;101365.53;;;24.41;100.00
48636;BME280;34429;52.332;5.614;2022-09-12T12:00:55;101362.09;;;24.53;100.00
48636;BME280;34429;52.332;5.614;2022-09-12T12:03:29;101371.34;;;24.78;100.00
48636;BME280;34429;52.332;5.614;2022-09-12T12:06:02;101367.03;;;24.96;100.00
48636;BME280;34429;52.332;5.614;2022-09-12T12:08:37;101370.22;;;24.93;100.00
48636;BME280;34429;52.332;5.614;2022-09-12T12:11:07;101369.31;;;24.60;100.00
48636;BME280;34429;52.332;5.614;2022-09-12T12:13:45;101372.03;;;25.12;100.00
48636;BME280;34429;52.332;5.614;2022-09-12T12:16:19;101361.31;;;24.97;100.00
48636;BME280;34429;52.332;5.614;2022-09-12T12:18:53;101354.81;;;25.56;100.00
48636;BME280;34429;52.332;5.614;2022-09-12T12:21:35;101366.00;;;25.35;100.00
48636;BME280;34429;52.332;5.614;2022-09-12T12:24:13;101354.59;;;25.18;100.00
48636;BME280;34429;52.332;5.614;2022-09-12T12:26:53;101354.75;;;24.92;100.00
48636;BME280;34429;52.332;5.614;2022-09-12T12:29:48;101352.16;;;25.04;100.00
48636;BME280;34429;52.332;5.614;2022-09-12T12:32:24;101356.09;;;24.76;100.00
48636;BME280;34429;52.332;5.614;2022-09-12T12:37:53;101339.16;;;24.79;100.00
48636;BME280;34429;52.332;5.614;2022-09-12T12:40:26;101343.88;;;25.10;100.00
48636;BME280;34429;52.332;5.614;2022-09-12T12:43:00;101339.16;;;25.49;100.00
48636;BME280;34429;52.332;5.614;2022-09-12T12:45:58;101332.63;;;25.44;99.59
48636;BME280;34429;52.332;5.614;2022-09-12T12:51:26;101314.94;;;25.58;98.14
48636;BME280;34429;52.332;5.614;2022-09-12T12:53:57;101312.97;;;25.40;100.00
48636;BME280;34429;52.332;5.614;2022-09-12T12:56:29;101309.31;;;25.46;100.00
48636;BME280;34429;52.332;5.614;2022-09-12T12:59:02;101308.69;;;25.44;100.00
48636;BME280;34429;52.332;5.614;2022-09-12T13:01:44;101297.09;;;25.61;98.08
48636;BME280;34429;52.332;5.614;2022-09-12T13:04:15;101298.88;;;25.48;94.37
48636;BME280;34429;52.332;5.614;2022-09-12T13:06:55;101292.84;;;25.65;100.00
48636;BME280;34429;52.332;5.614;2022-09-12T13:09:28;101291.91;;;25.71;88.91
48636;BME280;34429;52.332;5.614;2022-09-12T13:12:01;101290.91;;;25.40;93.22
48636;BME280;34429;52.332;5.614;2022-09-12T13:14:54;101295.38;;;25.66;94.43
48636;BME280;34429;52.332;5.614;2022-09-12T13:17:32;101278.91;;;25.78;89.54
48636;BME280;34429;52.332;5.614;2022-09-12T13:20:21;101272.78;;;25.76;95.90